sensor_id;sensor_type;location;lat;lon;timestamp;P1;durP1;ratioP1;P2;durP2;ratioP2
20828;SDS011;10575;50.124;8.582;2024-03-07T00:00:01;56.35;;;26.77;;
20828;SDS011;10575;50.124;8.582;2024-03-07T00:02:29;59.30;;;27.05;;
20828;SDS011;10575;50.124;8.582;2024-03-07T00:04:54;59.08;;;26.58;;
20828;SDS011;10575;50.124;8.582;2024-03-07T00:07:20;57.42;;;26.10;;
20828;SDS011;10575;50.124;8.582;2024-03-07T00:09:46;57.47;;;27.02;;
20828;SDS011;10575;50.124;8.582;2024-03-07T00:12:11;64.32;;;28.52;;
20828;SDS011;10575;50.124;8.582;2024-03-07T00:14:37;59.22;;;27.27;;
20828;SDS011;10575;50.124;8.582;2024-03-07T00:17:02;62.40;;;28.60;;
20828;SDS011;10575;50.124;8.582;2024-03-07T00:19:28;51.25;;;26.38;;
20828;SDS011;10575;50.124;8.582;2024-03-07T00:21:56;60.95;;;28.38;;
20828;SDS011;10575;50.124;8.582;2024-03-07T00:24:22;57.15;;;26.52;;
20828;SDS011;10575;50.124;8.582;2024-03-07T00:26:48;60.47;;;27.70;;
20828;SDS011;10575;50.124;8.582;2024-03-07T00:29:16;61.42;;;28.42;;
20828;SDS011;10575;50.124;8.582;2024-03-07T00:31:43;62.10;;;29.77;;
20828;SDS011;10575;50.124;8.582;2024-03-07T00:34:10;67.55;;;30.05;;
20828;SDS011;10575;50.124;8.582;2024-03-07T00:39:16;67.35;;;31.58;;
20828;SDS011;10575;50.124;8.582;2024-03-07T00:41:43;71.50;;;32.17;;
20828;SDS011;10575;50.124;8.582;2024-03-07T00:44:08;67.95;;;31.42;;
20828;SDS011;10575;50.124;8.582;2024-03-07T00:46:37;64.05;;;29.70;;
20828;SDS011;10575;50.124;8.582;2024-03-07T00:49:03;64.22;;;28.67;;
20828;SDS011;10575;50.124;8.582;2024-03-07T00:51:30;65.97;;;30.17;;
20828;SDS011;10575;50.124;8.582;2024-03-07T00:53:56;64.10;;;32.28;;
20828;SDS011;10575;50.124;8.582;2024-03-07T00:56:21;65.25;;;29.70;;
20828;SDS011;10575;50.124;8.582;2024-03-07T00:58:53;66.90;;;30.10;;
20828;SDS011;10575;50.124;8.582;2024-03-07T01:01:18;61.50;;;29.08;;
20828;SDS011;10575;50.124;8.582;2024-03-07T01:03:44;66.28;;;29.25;;
20828;SDS011;10575;50.124;8.582;2024-03-07T01:06:10;65.85;;;30.27;;
20828;SDS011;10575;50.124;8.582;2024-03-07T01:11:12;60.08;;;28.52;;
20828;SDS011;10575;50.124;8.582;2024-03-07T01:13:37;57.17;;;27.83;;
20828;SDS011;10575;50.124;8.582;2024-03-07T01:16:04;58.88;;;28.88;;
20828;SDS011;10575;50.124;8.582;2024-03-07T01:18:30;64.82;;;29.70;;
20828;SDS011;10575;50.124;8.582;2024-03-07T01:20:58;66.00;;;29.80;;
20828;SDS011;10575;50.124;8.582;2024-03-07T01:23:24;63.55;;;28.65;;
20828;SDS011;10575;50.124;8.582;2024-03-07T01:25:50;58.97;;;28.33;;
20828;SDS011;10575;50.124;8.582;2024-03-07T01:28:15;58.67;;;28.23;;
20828;SDS011;10575;50.124;8.582;2024-03-07T01:30:42;58.85;;;27.77;;
20828;SDS011;10575;50.124;8.582;2024-03-07T01:33:07;59.97;;;29.55;;
20828;SDS011;10575;50.124;8.582;2024-03-07T01:35:33;61.38;;;29.25;;
20828;SDS011;10575;50.124;8.582;2024-03-07T01:37:58;62.28;;;29.30;;
20828;SDS011;10575;50.124;8.582;2024-03-07T01:40:24;55.85;;;27.35;;
20828;SDS011;10575;50.124;8.582;2024-03-07T01:42:50;58.40;;;28.15;;
20828;SDS011;10575;50.124;8.582;2024-03-07T01:45:15;56.78;;;28.33;;
20828;SDS011;10575;50.124;8.582;2024-03-07T01:47:43;60.80;;;29.00;;
20828;SDS011;10575;50.124;8.582;2024-03-07T01:50:09;58.97;;;27.90;;
20828;SDS011;10575;50.124;8.582;2024-03-07T01:52:35;56.22;;;27.80;;
20828;SDS011;10575;50.124;8.582;2024-03-07T01:55:04;62.28;;;29.55;;
20828;SDS011;10575;50.124;8.582;2024-03-07T01:57:30;56.67;;;27.33;;
20828;SDS011;10575;50.124;8.582;2024-03-07T01:59:57;66.53;;;29.50;;
20828;SDS011;10575;50.124;8.582;2024-03-07T02:02:22;54.83;;;26.85;;
20828;SDS011;10575;50.124;8.582;2024-03-07T02:04:48;54.50;;;27.33;;
20828;SDS011;10575;50.124;8.582;2024-03-07T02:07:14;58.33;;;28.15;;
20828;SDS011;10575;50.124;8.582;2024-03-07T02:09:40;54.60;;;26.45;;
20828;SDS011;10575;50.124;8.582;2024-03-07T02:12:06;57.45;;;26.52;;
20828;SDS011;10575;50.124;8.582;2024-03-07T02:14:33;60.17;;;27.23;;
20828;SDS011;10575;50.124;8.582;2024-03-07T02:16:59;55.83;;;26.80;;
20828;SDS011;10575;50.124;8.582;2024-03-07T02:19:25;60.42;;;26.05;;
20828;SDS011;10575;50.124;8.582;2024-03-07T02:21:51;58.13;;;26.15;;
20828;SDS011;10575;50.124;8.582;2024-03-07T02:24:16;57.78;;;27.08;;
20828;SDS011;10575;50.124;8.582;2024-03-07T02:26:42;51.90;;;25.48;;
20828;SDS011;10575;50.124;8.582;2024-03-07T02:29:11;53.10;;;25.70;;
20828;SDS011;10575;50.124;8.582;2024-03-07T02:31:36;46.95;;;23.63;;
20828;SDS011;10575;50.124;8.582;2024-03-07T02:34:04;48.95;;;24.48;;
20828;SDS011;10575;50.124;8.582;2024-03-07T02:36:32;53.10;;;25.48;;
20828;SDS011;10575;50.124;8.582;2024-03-07T02:38:58;48.38;;;24.00;;
20828;SDS011;10575;50.124;8.582;2024-03-07T02:41:25;48.03;;;24.27;;
20828;SDS011;10575;50.124;8.582;2024-03-07T02:43:50;54.55;;;25.10;;
20828;SDS011;10575;50.124;8.582;2024-03-07T02:46:16;53.83;;;25.42;;
20828;SDS011;10575;50.124;8.582;2024-03-07T02:48:42;53.80;;;25.83;;
20828;SDS011;10575;50.124;8.582;2024-03-07T02:51:08;46.10;;;23.60;;
20828;SDS011;10575;50.124;8.582;2024-03-07T02:53:34;57.17;;;26.33;;
20828;SDS011;10575;50.124;8.582;2024-03-07T02:56:00;49.38;;;23.88;;
20828;SDS011;10575;50.124;8.582;2024-03-07T02:58:25;54.15;;;23.85;;
20828;SDS011;10575;50.124;8.582;2024-03-07T03:00:56;53.28;;;24.08;;
20828;SDS011;10575;50.124;8.582;2024-03-07T03:03:22;51.95;;;23.83;;
20828;SDS011;10575;50.124;8.582;2024-03-07T03:05:48;45.30;;;23.95;;
20828;SDS011;10575;50.124;8.582;2024-03-07T03:08:13;50.47;;;23.60;;
20828;SDS011;10575;50.124;8.582;2024-03-07T03:10:39;45.65;;;21.85;;
20828;SDS011;10575;50.124;8.582;2024-03-07T03:13:04;47.20;;;22.95;;
20828;SDS011;10575;50.124;8.582;2024-03-07T03:15:31;47.92;;;22.75;;
20828;SDS011;10575;50.124;8.582;2024-03-07T03:17:57;49.08;;;23.58;;
20828;SDS011;10575;50.124;8.582;2024-03-07T03:20:26;44.47;;;21.95;;
20828;SDS011;10575;50.124;8.582;2024-03-07T03:22:58;51.65;;;22.85;;
20828;SDS011;10575;50.124;8.582;2024-03-07T03:25:24;45.13;;;22.08;;
20828;SDS011;10575;50.124;8.582;2024-03-07T03:27:51;48.03;;;21.88;;
20828;SDS011;10575;50.124;8.582;2024-03-07T03:30:17;43.88;;;20.98;;
20828;SDS011;10575;50.124;8.582;2024-03-07T03:32:44;45.35;;;21.63;;
20828;SDS011;10575;50.124;8.582;2024-03-07T03:35:13;45.95;;;22.25;;
20828;SDS011;10575;50.124;8.582;2024-03-07T03:37:40;44.80;;;21.70;;
20828;SDS011;10575;50.124;8.582;2024-03-07T03:40:07;48.47;;;22.50;;
20828;SDS011;10575;50.124;8.582;2024-03-07T03:42:34;44.85;;;22.13;;
20828;SDS011;10575;50.124;8.582;2024-03-07T03:45:01;42.53;;;21.02;;
20828;SDS011;10575;50.124;8.582;2024-03-07T03:47:31;49.33;;;23.05;;
20828;SDS011;10575;50.124;8.582;2024-03-07T03:49:58;44.25;;;21.40;;
20828;SDS011;10575;50.124;8.582;2024-03-07T03:52:24;45.33;;;21.67;;
20828;SDS011;10575;50.124;8.582;2024-03-07T03:54:51;45.85;;;21.02;;
20828;SDS011;10575;50.124;8.582;2024-03-07T03:57:16;45.60;;;22.02;;
20828;SDS011;10575;50.124;8.582;2024-03-07T03:59:43;45.95;;;22.13;;
20828;SDS011;10575;50.124;8.582;2024-03-07T04:02:09;49.40;;;23.08;;
20828;SDS011;10575;50.124;8.582;2024-03-07T04:04:38;44.65;;;22.27;;
20828;SDS011;10575;50.124;8.582;2024-03-07T04:07:04;44.90;;;21.83;;
20828;SDS011;10575;50.124;8.582;2024-03-07T04:09:30;44.30;;;21.23;;
20828;SDS011;10575;50.124;8.582;2024-03-07T04:11:56;43.80;;;21.98;;
20828;SDS011;10575;50.124;8.582;2024-03-07T04:14:22;51.20;;;23.08;;
20828;SDS011;10575;50.124;8.582;2024-03-07T04:16:48;48.70;;;22.20;;
20828;SDS011;10575;50.124;8.582;2024-03-07T04:19:14;42.90;;;21.00;;
20828;SDS011;10575;50.124;8.582;2024-03-07T04:21:39;52.15;;;23.30;;
20828;SDS011;10575;50.124;8.582;2024-03-07T04:24:05;45.30;;;22.13;;
20828;SDS011;10575;50.124;8.582;2024-03-07T04:26:30;48.83;;;21.77;;
20828;SDS011;10575;50.124;8.582;2024-03-07T04:28:56;44.33;;;20.90;;
20828;SDS011;10575;50.124;8.582;2024-03-07T04:31:23;46.17;;;21.13;;
20828;SDS011;10575;50.124;8.582;2024-03-07T04:33:48;45.15;;;21.38;;
20828;SDS011;10575;50.124;8.582;2024-03-07T04:36:15;49.50;;;21.58;;
20828;SDS011;10575;50.124;8.582;2024-03-07T04:38:41;49.50;;;22.88;;
20828;SDS011;10575;50.124;8.582;2024-03-07T04:41:10;45.78;;;22.60;;
20828;SDS011;10575;50.124;8.582;2024-03-07T04:43:36;51.67;;;23.25;;
20828;SDS011;10575;50.124;8.582;2024-03-07T04:46:02;45.38;;;22.55;;
20828;SDS011;10575;50.124;8.582;2024-03-07T04:48:28;48.75;;;22.63;;
20828;SDS011;10575;50.124;8.582;2024-03-07T04:50:53;48.97;;;22.00;;
20828;SDS011;10575;50.124;8.582;2024-03-07T04:53:19;50.55;;;23.48;;
20828;SDS011;10575;50.124;8.582;2024-03-07T04:55:44;44.90;;;21.20;;
20828;SDS011;10575;50.124;8.582;2024-03-07T04:58:10;48.67;;;22.15;;
20828;SDS011;10575;50.124;8.582;2024-03-07T05:00:35;47.40;;;21.88;;
20828;SDS011;10575;50.124;8.582;2024-03-07T05:03:01;47.08;;;22.10;;
20828;SDS011;10575;50.124;8.582;2024-03-07T05:05:27;53.08;;;22.70;;
20828;SDS011;10575;50.124;8.582;2024-03-07T05:07:53;47.85;;;22.77;;
20828;SDS011;10575;50.124;8.582;2024-03-07T05:10:20;46.47;;;22.42;;
20828;SDS011;10575;50.124;8.582;2024-03-07T05:12:46;48.25;;;22.58;;
20828;SDS011;10575;50.124;8.582;2024-03-07T05:15:11;48.70;;;22.10;;
20828;SDS011;10575;50.124;8.582;2024-03-07T05:17:37;49.92;;;22.42;;
20828;SDS011;10575;50.124;8.582;2024-03-07T05:20:04;52.40;;;21.95;;
20828;SDS011;10575;50.124;8.582;2024-03-07T05:22:35;46.47;;;22.45;;
20828;SDS011;10575;50.124;8.582;2024-03-07T05:25:05;47.33;;;23.25;;
20828;SDS011;10575;50.124;8.582;2024-03-07T05:27:31;50.03;;;21.75;;
20828;SDS011;10575;50.124;8.582;2024-03-07T05:29:58;44.78;;;20.73;;
20828;SDS011;10575;50.124;8.582;2024-03-07T05:32:24;45.75;;;22.52;;
20828;SDS011;10575;50.124;8.582;2024-03-07T05:34:51;49.83;;;22.73;;
20828;SDS011;10575;50.124;8.582;2024-03-07T05:37:20;48.50;;;23.00;;
20828;SDS011;10575;50.124;8.582;2024-03-07T05:39:49;47.30;;;23.25;;
20828;SDS011;10575;50.124;8.582;2024-03-07T05:42:16;47.42;;;21.92;;
20828;SDS011;10575;50.124;8.582;2024-03-07T05:44:42;47.80;;;22.45;;
20828;SDS011;10575;50.124;8.582;2024-03-07T05:47:07;49.58;;;21.67;;
20828;SDS011;10575;50.124;8.582;2024-03-07T05:52:19;51.53;;;22.80;;
20828;SDS011;10575;50.124;8.582;2024-03-07T05:54:46;45.80;;;20.95;;
20828;SDS011;10575;50.124;8.582;2024-03-07T05:57:13;47.78;;;22.30;;
20828;SDS011;10575;50.124;8.582;2024-03-07T05:59:38;49.03;;;22.83;;
20828;SDS011;10575;50.124;8.582;2024-03-07T06:02:04;49.08;;;22.48;;
20828;SDS011;10575;50.124;8.582;2024-03-07T06:04:30;48.38;;;22.73;;
20828;SDS011;10575;50.124;8.582;2024-03-07T06:06:57;46.40;;;21.63;;
20828;SDS011;10575;50.124;8.582;2024-03-07T06:09:22;48.35;;;22.35;;
20828;SDS011;10575;50.124;8.582;2024-03-07T06:11:49;48.88;;;22.80;;
20828;SDS011;10575;50.124;8.582;2024-03-07T06:14:15;47.28;;;22.05;;
20828;SDS011;10575;50.124;8.582;2024-03-07T06:19:16;48.42;;;22.42;;
20828;SDS011;10575;50.124;8.582;2024-03-07T06:21:42;45.92;;;21.73;;
20828;SDS011;10575;50.124;8.582;2024-03-07T06:26:43;44.35;;;21.73;;
20828;SDS011;10575;50.124;8.582;2024-03-07T06:29:19;43.53;;;21.92;;
20828;SDS011;10575;50.124;8.582;2024-03-07T06:31:45;49.80;;;21.42;;
20828;SDS011;10575;50.124;8.582;2024-03-07T06:34:11;48.13;;;23.30;;
20828;SDS011;10575;50.124;8.582;2024-03-07T06:36:37;51.03;;;22.90;;
20828;SDS011;10575;50.124;8.582;2024-03-07T06:39:03;48.58;;;21.67;;
20828;SDS011;10575;50.124;8.582;2024-03-07T06:41:32;46.53;;;23.08;;
20828;SDS011;10575;50.124;8.582;2024-03-07T06:43:58;45.92;;;22.08;;
20828;SDS011;10575;50.124;8.582;2024-03-07T06:46:24;44.45;;;22.30;;
20828;SDS011;10575;50.124;8.582;2024-03-07T06:48:49;45.60;;;22.45;;
20828;SDS011;10575;50.124;8.582;2024-03-07T06:51:16;47.90;;;22.00;;
20828;SDS011;10575;50.124;8.582;2024-03-07T06:53:42;50.45;;;23.33;;
20828;SDS011;10575;50.124;8.582;2024-03-07T06:56:08;51.20;;;23.30;;
20828;SDS011;10575;50.124;8.582;2024-03-07T06:58:36;43.33;;;21.65;;
20828;SDS011;10575;50.124;8.582;2024-03-07T07:01:02;46.47;;;21.95;;
20828;SDS011;10575;50.124;8.582;2024-03-07T07:03:32;48.30;;;22.55;;
20828;SDS011;10575;50.124;8.582;2024-03-07T07:05:57;44.83;;;21.45;;
20828;SDS011;10575;50.124;8.582;2024-03-07T07:08:23;52.47;;;23.17;;
20828;SDS011;10575;50.124;8.582;2024-03-07T07:10:49;45.40;;;22.45;;
20828;SDS011;10575;50.124;8.582;2024-03-07T07:13:14;48.53;;;22.23;;
20828;SDS011;10575;50.124;8.582;2024-03-07T07:15:40;49.90;;;23.23;;
20828;SDS011;10575;50.124;8.582;2024-03-07T07:18:06;46.75;;;22.45;;
20828;SDS011;10575;50.124;8.582;2024-03-07T07:20:35;47.72;;;23.05;;
20828;SDS011;10575;50.124;8.582;2024-03-07T07:23:01;42.78;;;22.50;;
20828;SDS011;10575;50.124;8.582;2024-03-07T07:25:28;43.90;;;22.00;;
20828;SDS011;10575;50.124;8.582;2024-03-07T07:27:54;42.72;;;21.90;;
20828;SDS011;10575;50.124;8.582;2024-03-07T07:30:20;45.60;;;21.70;;
20828;SDS011;10575;50.124;8.582;2024-03-07T07:32:50;48.10;;;22.60;;
20828;SDS011;10575;50.124;8.582;2024-03-07T07:35:16;43.08;;;22.25;;
20828;SDS011;10575;50.124;8.582;2024-03-07T07:37:43;43.28;;;20.25;;
20828;SDS011;10575;50.124;8.582;2024-03-07T07:40:10;43.85;;;20.98;;
20828;SDS011;10575;50.124;8.582;2024-03-07T07:42:39;40.88;;;20.55;;
20828;SDS011;10575;50.124;8.582;2024-03-07T07:45:07;42.80;;;21.40;;
20828;SDS011;10575;50.124;8.582;2024-03-07T07:47:36;40.08;;;21.27;;
20828;SDS011;10575;50.124;8.582;2024-03-07T07:50:07;40.70;;;21.00;;
20828;SDS011;10575;50.124;8.582;2024-03-07T07:52:39;40.60;;;20.52;;
20828;SDS011;10575;50.124;8.582;2024-03-07T07:55:06;41.13;;;20.10;;
20828;SDS011;10575;50.124;8.582;2024-03-07T07:57:39;32.97;;;19.10;;
20828;SDS011;10575;50.124;8.582;2024-03-07T08:00:09;35.45;;;20.00;;
20828;SDS011;10575;50.124;8.582;2024-03-07T08:02:46;37.20;;;20.50;;
20828;SDS011;10575;50.124;8.582;2024-03-07T08:05:22;36.10;;;20.23;;
20828;SDS011;10575;50.124;8.582;2024-03-07T08:07:56;34.83;;;19.40;;
20828;SDS011;10575;50.124;8.582;2024-03-07T08:10:27;37.05;;;19.48;;
20828;SDS011;10575;50.124;8.582;2024-03-07T08:12:56;31.88;;;18.42;;
20828;SDS011;10575;50.124;8.582;2024-03-07T08:15:23;32.63;;;18.80;;
20828;SDS011;10575;50.124;8.582;2024-03-07T08:17:50;30.90;;;17.90;;
20828;SDS011;10575;50.124;8.582;2024-03-07T08:20:17;36.22;;;19.13;;
20828;SDS011;10575;50.124;8.582;2024-03-07T08:22:48;30.27;;;18.52;;
20828;SDS011;10575;50.124;8.582;2024-03-07T08:25:19;34.50;;;18.60;;
20828;SDS011;10575;50.124;8.582;2024-03-07T08:27:51;30.73;;;19.00;;
20828;SDS011;10575;50.124;8.582;2024-03-07T08:30:21;32.00;;;18.38;;
20828;SDS011;10575;50.124;8.582;2024-03-07T08:32:56;33.50;;;19.27;;
20828;SDS011;10575;50.124;8.582;2024-03-07T08:35:22;31.73;;;18.15;;
20828;SDS011;10575;50.124;8.582;2024-03-07T08:37:49;31.05;;;18.33;;
20828;SDS011;10575;50.124;8.582;2024-03-07T08:40:18;30.30;;;18.17;;
20828;SDS011;10575;50.124;8.582;2024-03-07T08:42:45;28.02;;;17.05;;
20828;SDS011;10575;50.124;8.582;2024-03-07T08:45:12;28.23;;;17.27;;
20828;SDS011;10575;50.124;8.582;2024-03-07T08:47:42;30.90;;;17.40;;
20828;SDS011;10575;50.124;8.582;2024-03-07T08:50:08;26.55;;;15.52;;
20828;SDS011;10575;50.124;8.582;2024-03-07T08:52:34;29.23;;;17.75;;
20828;SDS011;10575;50.124;8.582;2024-03-07T08:55:05;28.77;;;17.10;;
20828;SDS011;10575;50.124;8.582;2024-03-07T08:57:34;27.38;;;17.27;;
20828;SDS011;10575;50.124;8.582;2024-03-07T09:00:01;31.27;;;17.10;;
20828;SDS011;10575;50.124;8.582;2024-03-07T09:02:33;31.50;;;17.52;;
20828;SDS011;10575;50.124;8.582;2024-03-07T09:04:59;33.50;;;18.98;;
20828;SDS011;10575;50.124;8.582;2024-03-07T09:07:26;30.70;;;17.95;;
20828;SDS011;10575;50.124;8.582;2024-03-07T09:09:51;35.90;;;17.63;;
20828;SDS011;10575;50.124;8.582;2024-03-07T09:12:18;37.25;;;17.42;;
20828;SDS011;10575;50.124;8.582;2024-03-07T09:14:45;33.80;;;18.60;;
20828;SDS011;10575;50.124;8.582;2024-03-07T09:17:10;36.15;;;18.15;;
20828;SDS011;10575;50.124;8.582;2024-03-07T09:19:37;35.15;;;18.40;;
20828;SDS011;10575;50.124;8.582;2024-03-07T09:22:02;35.10;;;18.58;;
20828;SDS011;10575;50.124;8.582;2024-03-07T09:24:29;35.88;;;18.58;;
20828;SDS011;10575;50.124;8.582;2024-03-07T09:26:55;35.00;;;18.67;;
20828;SDS011;10575;50.124;8.582;2024-03-07T09:29:22;33.25;;;16.67;;
20828;SDS011;10575;50.124;8.582;2024-03-07T09:31:51;33.70;;;16.45;;
20828;SDS011;10575;50.124;8.582;2024-03-07T09:34:18;28.75;;;16.45;;
20828;SDS011;10575;50.124;8.582;2024-03-07T09:36:45;35.83;;;16.15;;
20828;SDS011;10575;50.124;8.582;2024-03-07T09:39:11;33.17;;;16.30;;
20828;SDS011;10575;50.124;8.582;2024-03-07T09:41:37;36.83;;;16.77;;
20828;SDS011;10575;50.124;8.582;2024-03-07T09:44:04;34.03;;;17.20;;
20828;SDS011;10575;50.124;8.582;2024-03-07T09:46:31;35.67;;;17.75;;
20828;SDS011;10575;50.124;8.582;2024-03-07T09:48:57;37.28;;;17.33;;
20828;SDS011;10575;50.124;8.582;2024-03-07T09:51:23;32.45;;;17.10;;
20828;SDS011;10575;50.124;8.582;2024-03-07T09:53:50;32.92;;;15.93;;
20828;SDS011;10575;50.124;8.582;2024-03-07T09:56:21;29.75;;;15.05;;
20828;SDS011;10575;50.124;8.582;2024-03-07T09:58:48;32.47;;;16.42;;
20828;SDS011;10575;50.124;8.582;2024-03-07T10:01:15;34.38;;;17.10;;
20828;SDS011;10575;50.124;8.582;2024-03-07T10:03:44;33.75;;;16.20;;
20828;SDS011;10575;50.124;8.582;2024-03-07T10:06:11;32.90;;;16.65;;
20828;SDS011;10575;50.124;8.582;2024-03-07T10:08:38;33.45;;;16.95;;
20828;SDS011;10575;50.124;8.582;2024-03-07T10:11:05;34.63;;;17.15;;
20828;SDS011;10575;50.124;8.582;2024-03-07T10:13:33;34.63;;;17.33;;
20828;SDS011;10575;50.124;8.582;2024-03-07T10:16:00;34.22;;;17.83;;
20828;SDS011;10575;50.124;8.582;2024-03-07T10:18:26;35.50;;;17.52;;
20828;SDS011;10575;50.124;8.582;2024-03-07T10:20:55;36.47;;;17.90;;
20828;SDS011;10575;50.124;8.582;2024-03-07T10:23:24;32.47;;;16.25;;
20828;SDS011;10575;50.124;8.582;2024-03-07T10:25:50;34.00;;;18.27;;
20828;SDS011;10575;50.124;8.582;2024-03-07T10:28:16;35.22;;;17.67;;
20828;SDS011;10575;50.124;8.582;2024-03-07T10:30:42;32.20;;;17.13;;
20828;SDS011;10575;50.124;8.582;2024-03-07T10:33:12;36.53;;;17.25;;
20828;SDS011;10575;50.124;8.582;2024-03-07T10:35:38;31.90;;;16.30;;
20828;SDS011;10575;50.124;8.582;2024-03-07T10:38:04;34.03;;;17.15;;
20828;SDS011;10575;50.124;8.582;2024-03-07T10:40:31;32.50;;;17.42;;
20828;SDS011;10575;50.124;8.582;2024-03-07T10:42:58;31.85;;;17.65;;
20828;SDS011;10575;50.124;8.582;2024-03-07T10:45:30;31.90;;;17.23;;
20828;SDS011;10575;50.124;8.582;2024-03-07T10:48:00;35.63;;;17.23;;
20828;SDS011;10575;50.124;8.582;2024-03-07T10:50:38;31.88;;;16.73;;
20828;SDS011;10575;50.124;8.582;2024-03-07T10:53:19;32.47;;;17.73;;
20828;SDS011;10575;50.124;8.582;2024-03-07T10:56:16;34.13;;;17.42;;
20828;SDS011;10575;50.124;8.582;2024-03-07T11:01:45;36.42;;;17.42;;
20828;SDS011;10575;50.124;8.582;2024-03-07T11:04:19;33.17;;;18.40;;
20828;SDS011;10575;50.124;8.582;2024-03-07T11:06:47;34.70;;;18.58;;
20828;SDS011;10575;50.124;8.582;2024-03-07T11:09:14;33.65;;;16.85;;
20828;SDS011;10575;50.124;8.582;2024-03-07T11:11:47;32.85;;;17.23;;
20828;SDS011;10575;50.124;8.582;2024-03-07T11:14:13;32.53;;;17.17;;
20828;SDS011;10575;50.124;8.582;2024-03-07T11:16:41;33.55;;;18.42;;
20828;SDS011;10575;50.124;8.582;2024-03-07T11:19:17;29.58;;;16.48;;
20828;SDS011;10575;50.124;8.582;2024-03-07T11:21:44;31.38;;;16.58;;
20828;SDS011;10575;50.124;8.582;2024-03-07T11:24:11;35.22;;;17.75;;
20828;SDS011;10575;50.124;8.582;2024-03-07T11:26:48;36.47;;;17.85;;
20828;SDS011;10575;50.124;8.582;2024-03-07T11:32:13;35.28;;;17.23;;
20828;SDS011;10575;50.124;8.582;2024-03-07T11:34:44;35.97;;;18.10;;
20828;SDS011;10575;50.124;8.582;2024-03-07T11:37:19;40.03;;;19.13;;
20828;SDS011;10575;50.124;8.582;2024-03-07T11:40:06;32.42;;;16.85;;
20828;SDS011;10575;50.124;8.582;2024-03-07T11:42:33;34.55;;;18.58;;
20828;SDS011;10575;50.124;8.582;2024-03-07T11:45:00;34.65;;;17.75;;
20828;SDS011;10575;50.124;8.582;2024-03-07T11:47:35;34.97;;;18.13;;
20828;SDS011;10575;50.124;8.582;2024-03-07T11:50:05;33.75;;;17.50;;
20828;SDS011;10575;50.124;8.582;2024-03-07T11:52:36;36.20;;;17.25;;
20828;SDS011;10575;50.124;8.582;2024-03-07T11:55:07;32.55;;;17.08;;
20828;SDS011;10575;50.124;8.582;2024-03-07T11:57:33;36.67;;;18.10;;
20828;SDS011;10575;50.124;8.582;2024-03-07T11:59:59;31.60;;;17.17;;
20828;SDS011;10575;50.124;8.582;2024-03-07T12:02:33;36.97;;;17.25;;
20828;SDS011;10575;50.124;8.582;2024-03-07T12:04:58;32.15;;;16.58;;
20828;SDS011;10575;50.124;8.582;2024-03-07T12:07:25;37.65;;;17.75;;
20828;SDS011;10575;50.124;8.582;2024-03-07T12:09:52;36.45;;;19.02;;
20828;SDS011;10575;50.124;8.582;2024-03-07T12:12:21;34.97;;;17.30;;
20828;SDS011;10575;50.124;8.582;2024-03-07T12:14:47;37.28;;;17.08;;
20828;SDS011;10575;50.124;8.582;2024-03-07T12:17:16;34.83;;;17.50;;
20828;SDS011;10575;50.124;8.582;2024-03-07T12:19:42;34.42;;;16.98;;
20828;SDS011;10575;50.124;8.582;2024-03-07T12:22:08;33.67;;;17.58;;
20828;SDS011;10575;50.124;8.582;2024-03-07T12:24:38;38.60;;;17.13;;
20828;SDS011;10575;50.124;8.582;2024-03-07T12:27:11;33.80;;;16.77;;
20828;SDS011;10575;50.124;8.582;2024-03-07T12:32:13;33.95;;;16.42;;
20828;SDS011;10575;50.124;8.582;2024-03-07T12:34:39;30.38;;;16.25;;
20828;SDS011;10575;50.124;8.582;2024-03-07T12:37:10;31.73;;;16.35;;
20828;SDS011;10575;50.124;8.582;2024-03-07T12:39:41;31.02;;;16.17;;
20828;SDS011;10575;50.124;8.582;2024-03-07T12:42:17;31.05;;;15.43;;
20828;SDS011;10575;50.124;8.582;2024-03-07T12:44:44;31.90;;;17.00;;
20828;SDS011;10575;50.124;8.582;2024-03-07T12:47:14;25.25;;;14.73;;
20828;SDS011;10575;50.124;8.582;2024-03-07T12:49:40;29.25;;;14.45;;
20828;SDS011;10575;50.124;8.582;2024-03-07T12:52:07;26.23;;;13.90;;
20828;SDS011;10575;50.124;8.582;2024-03-07T12:54:36;30.35;;;14.25;;
20828;SDS011;10575;50.124;8.582;2024-03-07T12:57:05;24.73;;;13.18;;
20828;SDS011;10575;50.124;8.582;2024-03-07T12:59:35;24.30;;;13.27;;
20828;SDS011;10575;50.124;8.582;2024-03-07T13:02:03;22.65;;;12.20;;
20828;SDS011;10575;50.124;8.582;2024-03-07T13:04:31;24.52;;;12.02;;
20828;SDS011;10575;50.124;8.582;2024-03-07T13:06:57;25.02;;;11.70;;
20828;SDS011;10575;50.124;8.582;2024-03-07T13:09:24;21.90;;;11.93;;
20828;SDS011;10575;50.124;8.582;2024-03-07T13:11:52;26.90;;;15.50;;
20828;SDS011;10575;50.124;8.582;2024-03-07T13:14:18;21.42;;;12.32;;
20828;SDS011;10575;50.124;8.582;2024-03-07T13:16:44;22.40;;;11.98;;
20828;SDS011;10575;50.124;8.582;2024-03-07T13:19:10;24.73;;;12.45;;
20828;SDS011;10575;50.124;8.582;2024-03-07T13:21:37;22.60;;;11.93;;
20828;SDS011;10575;50.124;8.582;2024-03-07T13:24:04;23.77;;;11.68;;
20828;SDS011;10575;50.124;8.582;2024-03-07T13:26:30;23.98;;;11.48;;
20828;SDS011;10575;50.124;8.582;2024-03-07T13:28:56;21.17;;;11.25;;
20828;SDS011;10575;50.124;8.582;2024-03-07T13:31:26;21.20;;;11.32;;
20828;SDS011;10575;50.124;8.582;2024-03-07T13:33:52;25.50;;;13.05;;
20828;SDS011;10575;50.124;8.582;2024-03-07T13:36:18;23.92;;;12.25;;
20828;SDS011;10575;50.124;8.582;2024-03-07T13:38:48;23.23;;;11.32;;
20828;SDS011;10575;50.124;8.582;2024-03-07T13:41:16;20.90;;;11.90;;
20828;SDS011;10575;50.124;8.582;2024-03-07T13:43:45;23.52;;;12.18;;
20828;SDS011;10575;50.124;8.582;2024-03-07T13:46:12;20.77;;;11.23;;
20828;SDS011;10575;50.124;8.582;2024-03-07T13:48:38;21.38;;;11.20;;
20828;SDS011;10575;50.124;8.582;2024-03-07T13:51:05;21.77;;;11.40;;
20828;SDS011;10575;50.124;8.582;2024-03-07T13:53:33;20.20;;;11.73;;
20828;SDS011;10575;50.124;8.582;2024-03-07T14:24:02;26.92;;;14.35;;
20828;SDS011;10575;50.124;8.582;2024-03-07T14:32:51;23.20;;;12.80;;
20828;SDS011;10575;50.124;8.582;2024-03-07T14:35:35;21.20;;;11.93;;
20828;SDS011;10575;50.124;8.582;2024-03-07T14:38:26;18.98;;;11.30;;
20828;SDS011;10575;50.124;8.582;2024-03-07T14:40:53;24.38;;;11.77;;
20828;SDS011;10575;50.124;8.582;2024-03-07T14:43:21;26.13;;;11.77;;
20828;SDS011;10575;50.124;8.582;2024-03-07T14:45:47;19.17;;;11.40;;
20828;SDS011;10575;50.124;8.582;2024-03-07T14:48:14;21.58;;;11.32;;
20828;SDS011;10575;50.124;8.582;2024-03-07T14:50:43;20.95;;;11.43;;
20828;SDS011;10575;50.124;8.582;2024-03-07T14:53:11;23.77;;;13.38;;
20828;SDS011;10575;50.124;8.582;2024-03-07T14:55:37;22.75;;;12.50;;
20828;SDS011;10575;50.124;8.582;2024-03-07T14:58:03;21.08;;;11.45;;
20828;SDS011;10575;50.124;8.582;2024-03-07T15:00:30;20.90;;;11.93;;
20828;SDS011;10575;50.124;8.582;2024-03-07T15:02:58;20.95;;;10.95;;
20828;SDS011;10575;50.124;8.582;2024-03-07T15:05:25;19.73;;;10.95;;
20828;SDS011;10575;50.124;8.582;2024-03-07T15:07:51;20.02;;;11.18;;
20828;SDS011;10575;50.124;8.582;2024-03-07T15:10:19;20.15;;;11.00;;
20828;SDS011;10575;50.124;8.582;2024-03-07T15:12:51;23.38;;;11.65;;
20828;SDS011;10575;50.124;8.582;2024-03-07T15:15:18;20.33;;;10.27;;
20828;SDS011;10575;50.124;8.582;2024-03-07T15:17:48;18.65;;;9.98;;